Time;durP1;ratioP1;P1;durP2;ratioP2;P2;SDS_P1;SDS_P2;PMS_P1;PMS_P2;Temp;Humidity;BMP_temperature;BMP_pressure;BME280_temperature;BME280_humidity;BME280_pressure;Samples;Min_cycle;Max_cycle;Signal;HPM_P1;HPM_P2
2021/06/25 00:02:26;;;;;;;6.33;4.13;;;;;;;22.92;65.70;100019.39;154426;1093;103129;-70
2021/06/25 00:05:29;;;;;;;5.93;4.10;;;;;;;22.87;65.35;100000.23;154468;1098;103188;-70
2021/06/25 00:08:32;;;;;;;7.10;4.60;;;;;;;22.72;65.12;99989.03;154453;1093;103206;-69
2021/06/25 00:11:35;;;;;;;5.75;3.78;;;;;;;22.62;65.81;99969.78;154538;1098;103187;-70
2021/06/25 08:02:59;;;;;;;11.47;10.27;;;;;;;21.52;69.91;100108.64;153974;1088;103243;-73
2021/06/25 08:06:02;;;;;;;10.43;9.33;;;;;;;21.69;69.85;100107.98;153978;1101;103224;-72
2021/06/25 08:09:07;;;;;;;12.83;9.83;;;;;;;21.74;67.19;100110.85;154030;1101;103224;-73
2021/06/25 08:12:12;;;;;;;10.90;9.80;;;;;;;21.60;68.44;100104.78;153951;1101;103148;-74
2021/06/25 08:15:15;;;;;;;10.90;9.63;;;;;;;21.56;68.65;100103.59;154008;1096;103393;-73
2021/06/25 08:18:18;;;;;;;10.77;9.67;;;;;;;21.53;68.84;100104.85;154014;1096;103244;-73
2021/06/25 08:21:21;;;;;;;10.47;9.13;;;;;;;21.58;69.53;100101.47;153977;1097;103202;-73
2021/06/25 08:24:24;;;;;;;10.70;8.50;;;;;;;21.83;68.99;100095.89;153951;1101;103224;-73
2021/06/25 08:27:27;;;;;;;8.85;7.65;;;;;;;21.83;67.90;100093.18;153687;1101;103185;-73
2021/06/25 08:30:30;;;;;;;8.85;7.70;;;;;;;21.74;66.61;100100.81;153947;1097;103231;-73
2021/06/25 08:33:33;;;;;;;8.10;7.20;;;;;;;21.62;68.12;100102.66;154012;1101;103190;-73
2021/06/25 08:36:37;;;;;;;8.73;7.50;;;;;;;21.83;68.24;100104.05;153996;1101;103518;-73
2021/06/25 08:39:40;;;;;;;8.93;7.10;;;;;;;22.03;67.64;100100.20;154027;1096;103103;-73
2021/06/25 08:42:43;;;;;;;8.07;7.37;;;;;;;21.91;67.25;100097.45;153976;1101;103223;-73
2021/06/25 08:45:46;;;;;;;7.30;6.37;;;;;;;22.06;67.82;100092.41;154107;1101;103409;-74
2021/06/25 08:48:52;;;;;;;6.10;5.50;;;;;;;22.06;67.33;100103.28;153994;1101;103157;-73
2021/06/25 08:51:55;;;;;;;7.27;6.67;;;;;;;22.02;66.76;100095.81;153966;1101;103147;-74
2021/06/25 08:54:58;;;;;;;7.40;6.70;;;;;;;21.79;66.15;100102.00;153939;1101;103240;-74
2021/06/25 08:58:01;;;;;;;8.47;6.80;;;;;;;21.56;67.67;100107.13;153947;1096;103334;-74
2021/06/25 09:01:04;;;;;;;7.18;6.48;;;;;;;21.57;67.04;100102.51;153924;1101;103262;-74
2021/06/25 09:04:07;;;;;;;7.47;6.77;;;;;;;21.64;66.95;100113.30;154195;1096;103228;-73
2021/06/25 09:07:11;;;;;;;7.63;6.90;;;;;;;21.71;66.30;100112.16;153984;1097;103224;-74
2021/06/25 09:10:27;;;;;;;6.43;5.83;;;;;;;21.62;66.62;100109.98;153975;1096;103224;-73
2021/06/25 09:13:35;;;;;;;6.50;5.90;;;;;;;21.64;66.72;100110.59;154028;1101;103292;-74
2021/06/25 09:16:42;;;;;;;7.07;6.40;;;;;;;21.62;66.87;100118.95;153733;1096;103324;-73
2021/06/25 09:19:45;;;;;;;7.43;6.73;;;;;;;21.65;66.24;100123.09;154015;1096;103160;-74
2021/06/25 09:22:51;;;;;;;7.30;6.60;;;;;;;21.59;66.67;100119.40;153946;1096;103216;-72
2021/06/25 09:25:58;;;;;;;7.90;7.10;;;;;;;21.68;66.89;100118.03;154038;1096;103341;-74
2021/06/25 09:29:15;;;;;;;15.47;7.70;;;;;;;21.76;66.12;100125.03;154032;1096;103317;-74
2021/06/25 09:32:18;;;;;;;7.53;6.83;;;;;;;21.85;66.01;100129.09;153991;1096;103279;-74
2021/06/25 09:35:24;;;;;;;5.97;5.37;;;;;;;22.27;67.19;100123.69;154015;1101;103232;-74
2021/06/25 09:38:39;;;;;;;6.15;5.00;;;;;;;23.10;66.69;100129.18;153979;1101;103224;-74
2021/06/25 09:41:44;;;;;;;5.53;4.93;;;;;;;23.61;65.59;100134.84;153971;1101;103172;-74
2021/06/25 09:45:03;;;;;;;7.00;6.30;;;;;;;23.62;63.11;100129.16;153998;1101;103157;-74
2021/06/25 09:48:07;;;;;;;7.53;6.83;;;;;;;22.88;64.24;100132.48;154893;1101;103134;-74
2021/06/25 09:51:12;;;;;;;7.70;7.00;;;;;;;22.64;63.68;100128.92;154286;1101;103221;-72
2021/06/25 09:54:16;;;;;;;7.60;6.70;;;;;;;22.34;64.05;100121.70;154088;1096;103227;-73
2021/06/25 09:57:19;;;;;;;7.10;6.33;;;;;;;22.33;64.43;100117.31;154337;1096;103223;-73
2021/06/25 10:01:21;;;;;;;7.60;6.80;;;;;;;22.22;63.83;100107.21;154031;1096;103173;-73
2021/06/25 10:03:50;;;;;;;7.70;6.85;;;;;;;22.20;65.06;100101.18;154081;1104;103148;-73
2021/06/25 10:07:10;;;;;;;7.37;6.60;;;;;;;22.28;64.91;100097.33;153917;1104;103294;-75
2021/06/25 10:10:13;;;;;;;8.37;7.57;;;;;;;22.22;64.53;100112.64;153610;1104;103320;-75
2021/06/25 10:13:16;;;;;;;8.60;7.73;;;;;;;22.12;64.78;100117.83;153641;1097;103146;-75
2021/06/25 10:16:19;;;;;;;8.65;7.80;;;;;;;22.28;64.86;100117.17;153923;1104;103180;-75
2021/06/25 10:19:24;;;;;;;9.03;8.13;;;;;;;22.40;63.87;100124.52;153876;1104;103302;-74
2021/06/25 10:22:28;;;;;;;9.87;8.87;;;;;;;22.24;63.71;100115.95;154363;1104;103230;-74
2021/06/25 10:25:32;;;;;;;9.90;8.90;;;;;;;22.08;64.20;100106.59;153652;1097;103125;-74
2021/06/25 10:28:37;;;;;;;10.90;8.43;;;;;;;22.04;64.13;100110.84;153576;1104;103121;-74
2021/06/25 10:31:41;;;;;;;9.83;8.83;;;;;;;21.92;64.53;100104.53;153686;1097;103150;-74
2021/06/25 10:34:46;;;;;;;10.07;9.07;;;;;;;21.86;64.54;100114.42;153935;1096;103298;-74
2021/06/25 10:37:49;;;;;;;10.07;9.07;;;;;;;21.99;64.91;100112.59;153692;1104;103240;-75
2021/06/25 10:40:57;;;;;;;10.27;9.17;;;;;;;22.02;64.04;100114.83;154011;1096;103134;-75
2021/06/25 10:44:00;;;;;;;9.63;8.63;;;;;;;22.20;62.79;100117.48;153691;1104;103225;-75
2021/06/25 10:47:24;;;;;;;10.47;9.37;;;;;;;22.21;63.38;100118.30;154020;1096;103236;-75
2021/06/25 10:50:27;;;;;;;10.13;9.13;;;;;;;22.18;64.16;100116.08;153630;1104;103229;-74
2021/06/25 10:53:30;;;;;;;10.47;9.47;;;;;;;22.22;63.67;100123.52;153644;1104;103230;-74
2021/06/25 10:56:33;;;;;;;11.47;9.83;;;;;;;21.88;63.95;100112.34;153748;1104;103143;-74
2021/06/25 10:59:45;;;;;;;10.13;9.20;;;;;;;21.82;64.63;100112.41;153709;1104;103147;-74
2021/06/25 11:02:48;;;;;;;9.77;8.63;;;;;;;21.93;64.39;100107.02;153714;1104;103592;-74
2021/06/25 11:05:51;;;;;;;9.30;8.30;;;;;;;22.12;64.30;100110.50;153683;1104;103329;-74
2021/06/25 11:09:05;;;;;;;7.63;6.83;;;;;;;22.37;64.07;100108.70;154011;1096;103227;-74
2021/06/25 11:12:20;;;;;;;9.23;8.33;;;;;;;22.47;62.85;100111.66;153976;1096;103144;-74
2021/06/25 11:15:32;;;;;;;9.90;8.20;;;;;;;22.33;63.79;100120.03;153694;1104;103149;-74
2021/06/25 11:18:44;;;;;;;10.57;9.43;;;;;;;22.28;63.39;100110.91;153678;1104;103104;-75
2021/06/25 11:21:47;;;;;;;9.77;8.80;;;;;;;22.00;63.57;100120.52;153665;1104;103397;-75
2021/06/25 11:24:54;;;;;;;9.58;8.58;;;;;;;21.86;63.17;100125.30;153633;1104;103216;-74
2021/06/25 11:28:17;;;;;;;10.33;9.17;;;;;;;21.90;63.77;100109.36;153980;1101;103220;-74
2021/06/25 11:31:23;;;;;;;10.37;8.83;;;;;;;22.06;63.23;100119.59;153725;1104;103228;-74
2021/06/25 11:34:30;;;;;;;9.60;8.70;;;;;;;21.92;63.17;100113.53;153651;1104;103268;-74
2021/06/25 11:37:58;;;;;;;10.50;9.50;;;;;;;21.77;63.34;100121.27;153902;1101;103409;-75
2021/06/25 11:41:01;;;;;;;9.33;8.43;;;;;;;21.67;63.98;100120.97;153992;1096;103195;-74
2021/06/25 11:44:06;;;;;;;8.80;7.97;;;;;;;21.75;64.05;100129.64;153790;1104;103246;-74
2021/06/25 11:47:12;;;;;;;7.47;6.60;;;;;;;21.94;64.03;100126.86;153638;1104;103151;-74
2021/06/25 11:50:21;;;;;;;8.87;7.97;;;;;;;21.88;63.78;100133.22;153668;1104;103117;-74
2021/06/25 11:53:24;;;;;;;10.80;9.15;;;;;;;21.82;63.65;100129.53;153641;1097;103208;-75
2021/06/25 11:56:27;;;;;;;8.20;7.40;;;;;;;21.78;64.02;100119.38;153640;1096;103149;-74
2021/06/25 11:59:31;;;;;;;10.07;9.07;;;;;;;22.15;63.24;100117.34;153984;1096;103155;-75
2021/06/25 12:02:45;;;;;;;8.47;7.63;;;;;;;22.35;63.39;100134.21;153632;1104;103130;-75
2021/06/25 12:05:48;;;;;;;9.93;8.93;;;;;;;22.42;62.36;100125.11;153702;1097;103137;-74
2021/06/25 12:08:56;;;;;;;10.60;8.98;;;;;;;22.44;63.04;100122.98;153739;1104;103271;-74
2021/06/25 12:11:59;;;;;;;11.30;10.20;;;;;;;22.33;62.82;100130.08;153719;1096;103131;-75
2021/06/25 12:15:06;;;;;;;9.40;8.20;;;;;;;22.37;63.10;100131.27;154048;1101;103131;-75
2021/06/25 12:18:19;;;;;;;12.13;10.20;;;;;;;22.50;62.53;100141.11;153995;1096;103234;-74
2021/06/25 12:21:23;;;;;;;11.00;9.90;;;;;;;22.46;62.33;100127.14;153989;1101;103222;-75
2021/06/25 12:24:26;;;;;;;10.70;9.60;;;;;;;22.46;62.98;100142.61;154066;1096;103391;-74
2021/06/25 12:27:38;;;;;;;11.30;10.10;;;;;;;22.44;62.78;100169.20;153987;1096;103144;-75
2021/06/25 12:30:45;;;;;;;11.23;9.10;;;;;;;22.07;63.05;100182.91;154004;1101;103094;-74
2021/06/25 12:33:48;;;;;;;10.10;9.10;;;;;;;22.03;63.20;100187.14;153998;1101;103144;-74
2021/06/25 12:37:00;;;;;;;16.10;9.17;;;;;;;21.87;63.55;100189.44;154014;1101;103151;-75
2021/06/25 12:40:04;;;;;;;7.90;7.20;;;;;;;21.69;63.97;100176.73;153995;1101;103270;-75
2021/06/25 12:43:08;;;;;;;9.53;8.40;;;;;;;21.66;63.83;100179.07;154050;1101;103195;-75
2021/06/25 12:46:14;;;;;;;10.93;9.83;;;;;;;21.69;64.12;100168.58;153952;1101;103051;-74
2021/06/25 12:49:19;;;;;;;8.70;7.80;;;;;;;21.77;64.29;100181.02;153941;1096;103256;-74
2021/06/25 12:52:24;;;;;;;11.37;9.40;;;;;;;21.87;64.23;100167.71;154042;1097;103273;-75
2021/06/25 12:55:27;;;;;;;11.80;10.60;;;;;;;21.78;64.58;100150.07;154022;1096;103269;-74
2021/06/25 12:58:32;;;;;;;10.50;9.40;;;;;;;22.06;64.53;100160.34;154085;1096;103124;-75
2021/06/25 13:01:36;;;;;;;11.77;10.57;;;;;;;22.61;63.67;100167.45;154015;1101;103118;-75
2021/06/25 13:04:42;;;;;;;12.17;10.97;;;;;;;23.00;62.90;100156.11;153982;1101;103206;-74
2021/06/25 13:07:45;;;;;;;11.83;10.60;;;;;;;22.76;62.74;100152.59;154014;1096;103228;-74
2021/06/25 13:10:48;;;;;;;11.47;9.53;;;;;;;22.44;63.63;100158.33;154295;1096;103235;-73
2021/06/25 13:13:51;;;;;;;10.13;9.13;;;;;;;22.48;63.59;100164.95;154391;1101;103246;-73
2021/06/25 13:16:54;;;;;;;10.03;9.03;;;;;;;22.63;63.09;100168.05;154078;1097;103518;-73
2021/06/25 13:20:02;;;;;;;10.57;9.47;;;;;;;22.81;62.98;100158.16;154014;1097;103099;-73
2021/06/25 13:23:10;;;;;;;11.00;9.85;;;;;;;22.71;62.61;100173.17;154053;1096;103219;-73
2021/06/25 13:26:19;;;;;;;12.20;10.43;;;;;;;22.35;62.83;100168.73;153922;1101;103304;-72
2021/06/25 13:29:24;;;;;;;11.50;9.97;;;;;;;22.23;63.36;100168.67;153993;1101;103223;-73
2021/06/25 13:32:29;;;;;;;10.80;9.70;;;;;;;22.48;62.98;100184.84;153958;1097;103168;-74
2021/06/25 13:35:40;;;;;;;9.57;8.57;;;;;;;22.60;62.85;100179.41;154020;1101;103227;-73
2021/06/25 13:38:43;;;;;;;9.60;8.70;;;;;;;22.70;63.15;100189.71;154001;1096;103147;-74
2021/06/25 13:41:46;;;;;;;10.23;8.00;;;;;;;22.93;63.23;100183.45;154230;1096;103629;-72
2021/06/25 13:44:49;;;;;;;9.67;8.67;;;;;;;23.12;63.01;100181.48;155318;1101;103177;-74
2021/06/25 13:47:54;;;;;;;6.60;6.00;;;;;;;23.39;62.96;100181.80;154468;1101;103193;-71
2021/06/25 13:51:01;;;;;;;10.17;8.93;;;;;;;23.64;62.10;100170.60;154956;1101;103142;-74
2021/06/25 13:54:17;;;;;;;7.85;7.15;;;;;;;23.90;62.14;100171.13;154691;1101;103227;-73
2021/06/25 13:57:21;;;;;;;10.55;8.20;;;;;;;24.05;61.66;100168.69;154385;1101;103279;-73
2021/06/25 14:00:29;;;;;;;9.73;8.67;;;;;;;23.70;60.75;100163.36;154347;1096;103156;-72
2021/06/25 14:03:32;;;;;;;9.47;8.57;;;;;;;23.59;60.48;100170.48;155434;1096;103102;-74
2021/06/25 14:06:36;;;;;;;11.33;9.73;;;;;;;23.71;60.68;100173.17;154447;1096;103234;-73
2021/06/25 14:09:39;;;;;;;11.17;9.40;;;;;;;23.75;60.96;100163.47;154470;1101;103139;-74
2021/06/25 14:12:42;;;;;;;13.10;10.48;;;;;;;23.44;60.79;100157.41;154181;1096;103260;-74
2021/06/25 14:15:48;;;;;;;11.33;10.13;;;;;;;23.13;61.33;100148.59;154559;1096;103145;-71
2021/06/25 14:18:52;;;;;;;11.93;10.00;;;;;;;23.16;61.47;100143.73;154549;1101;103498;-72
2021/06/25 14:21:55;;;;;;;9.40;7.57;;;;;;;23.22;61.02;100132.70;155042;1096;103097;-72
2021/06/25 14:24:58;;;;;;;10.80;8.47;;;;;;;23.21;61.36;100141.09;154377;1101;103103;-70
2021/06/25 14:28:01;;;;;;;9.80;8.20;;;;;;;23.16;60.48;100144.55;154370;1101;103131;-72
2021/06/25 14:31:05;;;;;;;10.43;7.80;;;;;;;23.12;61.50;100143.38;154077;1101;103132;-71
2021/06/25 14:34:08;;;;;;;8.33;7.40;;;;;;;23.22;61.35;100149.03;154353;1101;103195;-72
2021/06/25 14:37:11;;;;;;;10.15;7.85;;;;;;;23.23;60.94;100147.98;154009;1095;103649;-77
2021/06/25 14:40:16;;;;;;;9.83;8.83;;;;;;;23.21;60.89;100149.27;154112;1101;103257;-73
2021/06/25 14:43:19;;;;;;;10.97;9.87;;;;;;;23.05;60.53;100139.94;154170;1101;103230;-72
2021/06/25 14:46:23;;;;;;;12.10;10.55;;;;;;;22.99;60.54;100132.70;153984;1096;103231;-73
2021/06/25 14:49:26;;;;;;;13.40;12.10;;;;;;;23.18;60.86;100141.59;154010;1101;103099;-71
2021/06/25 14:52:29;;;;;;;12.13;10.93;;;;;;;22.96;61.48;100144.91;153952;1096;103131;-76
2021/06/25 14:55:33;;;;;;;11.03;9.93;;;;;;;22.98;61.56;100137.33;154046;1101;103128;-71
2021/06/25 14:58:36;;;;;;;9.97;8.97;;;;;;;23.10;61.90;100130.00;153971;1101;103212;-72
2021/06/25 15:01:39;;;;;;;12.40;10.65;;;;;;;23.23;61.82;100133.52;154129;1096;103211;-74
2021/06/25 15:04:42;;;;;;;12.93;11.50;;;;;;;23.03;61.25;100118.41;153992;1101;103240;-73
2021/06/25 15:07:45;;;;;;;16.37;10.73;;;;;;;22.81;61.51;100114.63;153966;1096;103579;-76
2021/06/25 15:10:48;;;;;;;12.40;11.20;;;;;;;22.80;61.97;100104.80;154069;1101;103125;-75
2021/06/25 15:13:51;;;;;;;12.03;10.80;;;;;;;22.92;61.99;100100.16;153986;1101;103246;-72
2021/06/25 15:16:54;;;;;;;12.40;10.27;;;;;;;23.18;61.55;100108.93;154073;1096;103141;-75
2021/06/25 15:19:58;;;;;;;8.50;7.60;;;;;;;23.36;61.75;100099.77;153990;1096;103147;-75
2021/06/25 15:23:02;;;;;;;12.75;11.25;;;;;;;23.56;61.24;100107.50;154026;1096;103253;-74
2021/06/25 15:26:05;;;;;;;14.30;12.47;;;;;;;23.50;60.55;100091.08;154103;1101;103512;-75
2021/06/25 15:29:08;;;;;;;12.43;11.20;;;;;;;23.61;61.10;100107.61;153973;1101;103185;-75
2021/06/25 15:32:10;;;;;;;11.97;10.87;;;;;;;23.86;60.93;100099.94;154033;1096;103163;-73
2021/06/25 15:35:14;;;;;;;13.20;11.80;;;;;;;23.92;60.68;100100.85;153983;1096;103228;-73
2021/06/25 15:38:17;;;;;;;12.30;10.97;;;;;;;23.95;60.18;100102.28;154028;1096;103168;-73
2021/06/25 15:41:20;;;;;;;13.10;11.80;;;;;;;23.79;60.84;100106.60;154029;1096;103230;-74
2021/06/25 15:44:24;;;;;;;10.97;9.87;;;;;;;23.76;60.65;100112.53;154013;1101;103193;-73
2021/06/25 15:47:27;;;;;;;11.80;10.47;;;;;;;23.60;60.36;100111.41;154004;1101;103517;-72
2021/06/25 15:50:30;;;;;;;11.03;8.80;;;;;;;23.47;60.49;100102.44;153991;1096;103219;-72
2021/06/25 15:53:33;;;;;;;9.88;8.88;;;;;;;23.28;61.21;100098.24;153917;1101;103104;-73
2021/06/25 15:56:36;;;;;;;8.70;7.73;;;;;;;23.19;61.27;100099.68;154079;1096;103144;-73
2021/06/25 15:59:39;;;;;;;18.53;16.43;;;;;;;23.22;61.34;100101.94;153991;1101;103222;-75
2021/06/25 16:02:42;;;;;;;19.37;17.13;;;;;;;23.23;61.61;100109.87;154083;1101;103557;-80
2021/06/25 16:05:45;;;;;;;13.77;11.30;;;;;;;23.31;61.60;100114.11;154166;1101;103190;-78
2021/06/25 16:08:52;;;;;;;9.67;8.63;;;;;;;23.26;61.36;100120.26;154047;1096;103200;-77
2021/06/25 16:11:56;;;;;;;8.90;8.10;;;;;;;23.20;61.06;100112.23;154212;1101;103223;-80
2021/06/25 16:14:58;;;;;;;11.60;10.50;;;;;;;23.13;61.19;100104.19;153990;1101;103261;-79
2021/06/25 16:18:01;;;;;;;8.53;7.73;;;;;;;23.07;60.94;100096.98;154055;1101;103147;-73
2021/06/25 16:21:05;;;;;;;8.07;6.80;;;;;;;22.95;61.21;100105.14;154039;1101;103141;-71
2021/06/25 16:24:13;;;;;;;8.53;7.20;;;;;;;22.90;61.63;100108.59;153972;1096;103186;-72
2021/06/25 16:27:16;;;;;;;9.30;7.67;;;;;;;22.94;61.09;100103.47;153994;1101;103170;-72
2021/06/25 16:30:20;;;;;;;6.97;6.27;;;;;;;22.82;61.13;100095.33;153954;1096;103282;-72
2021/06/25 16:33:23;;;;;;;8.23;7.43;;;;;;;22.76;61.07;100100.91;154010;1101;103217;-72
2021/06/25 16:36:26;;;;;;;7.98;6.83;;;;;;;22.71;61.29;100091.56;154002;1101;103164;-72
2021/06/25 16:39:28;;;;;;;10.83;8.10;;;;;;;22.66;61.25;100082.46;154020;1096;103163;-75
2021/06/25 16:42:32;;;;;;;8.95;7.50;;;;;;;22.58;61.30;100085.55;154092;1096;104637;-75
2021/06/25 16:45:35;;;;;;;9.43;8.43;;;;;;;22.49;61.30;100085.88;154431;1096;103222;-75
2021/06/25 16:48:38;;;;;;;8.67;7.77;;;;;;;22.46;61.63;100082.80;154107;1096;103153;-78
2021/06/25 16:51:41;;;;;;;8.60;7.10;;;;;;;22.41;61.55;100085.41;154327;1096;103579;-77
2021/06/25 16:54:44;;;;;;;7.10;5.87;;;;;;;22.41;61.46;100082.70;154265;1097;103557;-75
2021/06/25 16:57:46;;;;;;;8.05;5.65;;;;;;;22.41;61.93;100082.70;154120;1101;103224;-77
2021/06/25 17:00:50;;;;;;;9.53;6.37;;;;;;;22.42;61.84;100084.33;154589;1096;103557;-75
2021/06/25 17:03:53;;;;;;;7.07;6.37;;;;;;;22.45;62.02;100089.31;154428;1101;103176;-77
2021/06/25 17:06:56;;;;;;;7.20;6.50;;;;;;;22.46;61.97;100086.36;154460;1101;103121;-81
2021/06/25 17:10:01;;;;;;;7.60;6.63;;;;;;;22.50;62.04;100090.27;154148;1096;103136;-77
2021/06/25 17:13:07;;;;;;;9.10;6.77;;;;;;;22.51;62.07;100088.36;154114;1101;103190;-77
2021/06/25 17:16:10;;;;;;;6.70;6.00;;;;;;;22.53;62.18;100099.83;154203;1101;103222;-75
2021/06/25 17:19:13;;;;;;;11.37;10.03;;;;;;;22.61;62.28;100106.81;154274;1101;103142;-78
2021/06/25 17:22:16;;;;;;;12.65;10.95;;;;;;;22.75;62.10;100108.24;153986;1097;103141;-74
2021/06/25 17:25:19;;;;;;;16.00;11.70;;;;;;;22.88;62.09;100101.71;154007;1097;103103;-77
2021/06/25 17:28:22;;;;;;;11.75;8.55;;;;;;;22.75;62.03;100089.20;154043;1101;103125;-77
2021/06/25 17:31:25;;;;;;;8.38;7.58;;;;;;;22.55;62.04;100097.70;154034;1096;103305;-78
2021/06/25 17:34:28;;;;;;;10.40;7.55;;;;;;;22.38;62.41;100104.90;154042;1101;103232;-80
2021/06/25 17:37:31;;;;;;;8.50;7.47;;;;;;;22.22;62.32;100115.36;154223;1096;103224;-80
2021/06/25 17:40:34;;;;;;;7.90;7.10;;;;;;;22.10;62.52;100114.52;154088;1096;103227;-75
2021/06/25 17:43:38;;;;;;;8.43;7.43;;;;;;;21.99;62.78;100112.59;154075;1101;103246;-73
2021/06/25 17:46:40;;;;;;;9.33;7.73;;;;;;;21.91;62.84;100113.75;153989;1096;103227;-82
2021/06/25 17:49:43;;;;;;;13.93;9.73;;;;;;;21.82;63.13;100113.23;154010;1101;103563;-73
2021/06/25 17:52:48;;;;;;;10.20;8.23;;;;;;;21.78;63.23;100114.77;153992;1101;103187;-74
2021/06/25 17:55:51;;;;;;;8.43;7.43;;;;;;;21.80;63.40;100118.07;154079;1096;103147;-76
2021/06/25 17:58:54;;;;;;;7.70;6.80;;;;;;;21.85;63.49;100123.66;154049;1096;103175;-75
2021/06/25 18:01:57;;;;;;;9.27;7.57;;;;;;;21.87;63.62;100120.71;154068;1096;103778;-75
2021/06/25 18:05:00;;;;;;;6.50;5.80;;;;;;;21.89;63.56;100124.84;154143;1101;103129;-74
2021/06/25 18:08:04;;;;;;;6.73;5.70;;;;;;;21.96;63.71;100131.02;153960;1101;103099;-75
2021/06/25 18:11:07;;;;;;;10.50;4.85;;;;;;;22.10;63.89;100134.36;154100;1097;103123;-78
2021/06/25 18:14:11;;;;;;;7.83;5.48;;;;;;;22.19;63.85;100128.59;154261;1096;103174;-78
2021/06/25 18:17:15;;;;;;;6.73;4.77;;;;;;;22.24;63.75;100126.83;154418;1101;103249;-78
2021/06/25 18:20:18;;;;;;;7.80;6.53;;;;;;;22.28;63.82;100133.48;154195;1101;103230;-79
2021/06/25 18:23:21;;;;;;;7.77;5.60;;;;;;;22.40;64.05;100141.66;153977;1101;103182;-78
2021/06/25 18:26:26;;;;;;;6.83;5.20;;;;;;;22.49;63.93;100150.31;153932;1101;103219;-73
2021/06/25 18:29:30;;;;;;;9.57;6.30;;;;;;;22.49;64.02;100144.88;153970;1096;103250;-73
2021/06/25 18:32:34;;;;;;;6.85;5.20;;;;;;;22.43;63.84;100151.25;154060;1097;103253;-74
2021/06/25 18:35:38;;;;;;;5.57;5.00;;;;;;;22.41;63.74;100156.92;154150;1101;103172;-72
2021/06/25 18:38:41;;;;;;;6.40;5.60;;;;;;;22.41;64.13;100153.38;154053;1101;103228;-72
2021/06/25 18:41:44;;;;;;;11.07;7.33;;;;;;;22.31;63.97;100157.49;154148;1101;103571;-71
2021/06/25 18:44:47;;;;;;;7.10;5.73;;;;;;;22.25;64.31;100141.27;154110;1096;103217;-71
2021/06/25 18:47:51;;;;;;;7.13;5.90;;;;;;;22.18;64.26;100144.07;154037;1101;103272;-70
2021/06/25 18:50:53;;;;;;;7.30;6.60;;;;;;;22.10;64.42;100149.84;153973;1101;103346;-72
2021/06/25 18:53:56;;;;;;;6.60;6.00;;;;;;;22.02;64.64;100161.88;154016;1095;103118;-73
2021/06/25 18:57:00;;;;;;;6.70;5.67;;;;;;;21.98;64.67;100176.13;154083;1096;103214;-74
2021/06/25 19:00:07;;;;;;;4.90;4.40;;;;;;;21.91;64.70;100177.05;154299;1101;103195;-73
2021/06/25 19:03:10;;;;;;;4.93;4.43;;;;;;;21.89;64.68;100173.73;154141;1101;103232;-72
2021/06/25 19:06:14;;;;;;;5.63;4.83;;;;;;;21.84;64.86;100162.72;154276;1101;103133;-75
2021/06/25 19:09:17;;;;;;;6.37;5.63;;;;;;;21.85;64.79;100179.88;154098;1096;103123;-74
2021/06/25 19:12:20;;;;;;;7.75;5.60;;;;;;;21.82;64.92;100185.75;154022;1096;103113;-77
2021/06/25 19:15:23;;;;;;;5.37;4.83;;;;;;;21.80;64.91;100196.84;154008;1101;103249;-74
2021/06/25 19:18:26;;;;;;;5.93;5.00;;;;;;;21.76;65.00;100199.18;154016;1101;103371;-75
2021/06/25 19:21:29;;;;;;;5.57;5.00;;;;;;;21.79;64.95;100205.21;154216;1101;103195;-75
2021/06/25 19:24:32;;;;;;;6.20;5.60;;;;;;;21.79;64.94;100191.63;153990;1101;103249;-72
2021/06/25 19:27:35;;;;;;;6.50;5.40;;;;;;;21.74;65.07;100195.05;154037;1096;103128;-72
2021/06/25 19:30:43;;;;;;;5.50;5.00;;;;;;;21.70;65.04;100199.27;154000;1101;103134;-72
2021/06/25 19:33:46;;;;;;;5.30;4.40;;;;;;;21.68;65.08;100187.81;153981;1096;103193;-71
2021/06/25 19:36:49;;;;;;;5.95;5.20;;;;;;;21.67;65.12;100175.28;154046;1096;103132;-72
2021/06/25 19:39:52;;;;;;;6.40;5.50;;;;;;;21.68;65.06;100166.09;153996;1096;103130;-73
2021/06/25 19:42:55;;;;;;;8.60;5.97;;;;;;;21.65;65.05;100170.10;154174;1101;103135;-73
2021/06/25 19:45:58;;;;;;;6.00;5.45;;;;;;;21.62;65.19;100164.30;154099;1096;103228;-73
2021/06/25 19:49:01;;;;;;;6.70;5.73;;;;;;;21.60;65.28;100158.27;154064;1101;103224;-72
2021/06/25 19:52:05;;;;;;;5.60;5.10;;;;;;;21.55;65.22;100159.75;154012;1101;103259;-72
2021/06/25 19:55:11;;;;;;;5.43;4.93;;;;;;;21.55;65.70;100151.60;154031;1101;103230;-72
2021/06/25 19:58:14;;;;;;;5.73;4.97;;;;;;;21.62;65.46;100156.14;154009;1096;103143;-73
2021/06/25 20:01:18;;;;;;;5.17;4.67;;;;;;;21.65;65.39;100147.53;153979;1095;103228;-72
2021/06/25 20:04:21;;;;;;;5.00;4.50;;;;;;;21.66;65.35;100157.34;154082;1101;103249;-72
2021/06/25 20:07:24;;;;;;;6.43;5.10;;;;;;;21.67;65.31;100164.42;154029;1096;103150;-72
2021/06/25 20:10:27;;;;;;;7.03;5.63;;;;;;;21.68;65.67;100160.66;153986;1097;103223;-72
2021/06/25 20:13:30;;;;;;;5.57;5.07;;;;;;;21.71;65.48;100160.18;154051;1101;103135;-74
2021/06/25 20:16:33;;;;;;;6.07;4.53;;;;;;;21.68;65.45;100160.66;154110;1096;103174;-74
2021/06/25 20:19:36;;;;;;;6.35;5.75;;;;;;;21.66;65.57;100163.59;154038;1096;103265;-72
2021/06/25 20:22:40;;;;;;;9.73;5.53;;;;;;;21.68;65.61;100160.66;154120;1096;103126;-75
2021/06/25 20:25:43;;;;;;;6.40;5.00;;;;;;;21.70;65.74;100158.54;154105;1101;103222;-75
2021/06/25 20:28:46;;;;;;;6.03;4.80;;;;;;;21.76;65.87;100158.44;154082;1096;103224;-75
2021/06/25 20:31:50;;;;;;;5.83;4.87;;;;;;;21.86;65.76;100157.06;154016;1095;103108;-76
2021/06/25 20:34:53;;;;;;;5.50;5.00;;;;;;;21.99;65.71;100164.22;153995;1101;104545;-74
2021/06/25 20:37:56;;;;;;;5.63;5.03;;;;;;;22.08;65.86;100165.55;153995;1101;103142;-75
2021/06/25 20:40:59;;;;;;;5.97;4.80;;;;;;;22.16;65.67;100166.04;153987;1101;103103;-75
2021/06/25 20:44:02;;;;;;;5.47;4.97;;;;;;;22.16;65.41;100162.50;153984;1096;103249;-75
2021/06/25 20:47:06;;;;;;;6.67;5.03;;;;;;;22.13;65.59;100146.65;154002;1096;103569;-78
2021/06/25 20:50:11;;;;;;;6.73;5.53;;;;;;;22.05;65.30;100155.14;153949;1101;103363;-77
2021/06/25 20:53:14;;;;;;;7.97;4.80;;;;;;;21.88;65.56;100155.80;154008;1101;103202;-76
2021/06/25 20:56:17;;;;;;;5.67;5.07;;;;;;;21.74;65.66;100155.13;153997;1096;103195;-78
2021/06/25 20:59:20;;;;;;;6.43;5.50;;;;;;;21.72;65.84;100153.70;153965;1101;103127;-80
2021/06/25 21:02:23;;;;;;;6.07;5.47;;;;;;;21.67;65.96;100156.27;153984;1096;104725;-77
2021/06/25 21:05:26;;;;;;;7.20;6.50;;;;;;;21.62;65.59;100156.14;153971;1096;103278;-77
2021/06/25 21:08:29;;;;;;;8.00;7.20;;;;;;;21.45;65.66;100169.50;153959;1101;103575;-76
2021/06/25 21:11:33;;;;;;;7.60;6.77;;;;;;;21.19;66.06;100163.30;154016;1101;103159;-74
2021/06/25 21:14:36;;;;;;;7.97;7.10;;;;;;;21.03;65.83;100163.88;153974;1096;103116;-77
2021/06/25 21:17:39;;;;;;;6.23;5.63;;;;;;;20.89;66.32;100168.60;153984;1095;103151;-77
2021/06/25 21:20:44;;;;;;;10.10;7.20;;;;;;;20.73;66.75;100165.41;153980;1096;103183;-77
2021/06/25 21:23:47;;;;;;;9.13;7.77;;;;;;;20.60;66.65;100160.09;153976;1101;103195;-77
2021/06/25 21:26:49;;;;;;;8.83;7.93;;;;;;;20.42;66.80;100170.83;153981;1101;103100;-76
2021/06/25 21:29:52;;;;;;;10.55;8.00;;;;;;;20.32;66.98;100177.59;153948;1101;103220;-77
2021/06/25 21:32:55;;;;;;;9.60;8.67;;;;;;;20.27;67.46;100187.42;154032;1101;103109;-76
2021/06/25 21:35:59;;;;;;;8.57;7.73;;;;;;;20.15;67.25;100193.53;153971;1101;103302;-81
2021/06/25 21:39:03;;;;;;;8.57;7.77;;;;;;;20.06;67.65;100196.72;154154;1101;103126;-80
2021/06/25 21:42:06;;;;;;;8.30;7.50;;;;;;;20.02;67.13;100200.91;154086;1096;103144;-77